createdAt,value
2019-02-12T00:01:37.804Z,2.00
2019-02-12T00:06:41.779Z,2.43
2019-02-12T00:11:45.845Z,1.80
2019-02-12T00:16:49.522Z,1.93
2019-02-12T00:21:53.209Z,2.03
2019-02-12T00:26:57.505Z,2.33
2019-02-12T00:32:01.189Z,1.83
2019-02-12T00:37:04.868Z,2.43
2019-02-12T00:42:08.570Z,1.90
2019-02-12T00:47:12.340Z,2.10
2019-02-12T00:52:16.050Z,1.90
2019-02-12T00:57:19.768Z,2.17
2019-02-12T01:02:23.781Z,1.90
2019-02-12T01:07:27.490Z,2.10
2019-02-12T01:12:31.210Z,1.83
2019-02-12T01:17:34.929Z,1.80
2019-02-12T01:22:38.857Z,1.80
2019-02-12T01:27:42.547Z,2.33
2019-02-12T01:32:46.254Z,1.50
2019-02-12T01:37:50.046Z,1.80
2019-02-12T01:42:53.814Z,2.13
2019-02-12T01:47:57.777Z,1.40
2019-02-12T01:53:02.018Z,1.70
2019-02-12T01:58:06.200Z,2.00
2019-02-12T02:03:10.392Z,1.40
2019-02-12T02:08:14.343Z,1.50
2019-02-12T02:13:18.140Z,1.40
2019-02-12T02:18:22.052Z,1.80
2019-02-12T02:23:25.802Z,1.80
2019-02-12T02:28:29.542Z,1.63
2019-02-12T02:33:33.513Z,1.73
2019-02-12T02:38:37.346Z,2.07
2019-02-12T02:43:41.069Z,1.77
2019-02-12T02:48:44.775Z,1.70
2019-02-12T02:53:48.481Z,1.53
2019-02-12T02:58:52.197Z,1.60
2019-02-12T03:03:55.928Z,1.40
2019-02-12T03:08:59.685Z,1.50
2019-02-12T03:14:03.381Z,1.80
2019-02-12T03:19:07.069Z,1.30
2019-02-12T03:24:10.818Z,2.27
2019-02-12T03:29:14.528Z,1.83
2019-02-12T03:34:18.506Z,2.50
2019-02-12T03:39:22.214Z,1.63
2019-02-12T03:44:25.925Z,1.80
2019-02-12T03:49:29.607Z,1.47
2019-02-12T03:54:33.391Z,1.97
2019-02-12T03:59:37.081Z,2.17
2019-02-12T04:04:40.806Z,1.83
2019-02-12T04:09:44.490Z,2.20
2019-02-12T04:14:48.223Z,1.80
2019-02-12T04:19:51.919Z,1.97
2019-02-12T04:24:55.641Z,1.90
2019-02-12T04:29:59.468Z,1.80
2019-02-12T04:35:03.140Z,2.40
2019-02-12T04:40:07.903Z,1.80
2019-02-12T04:45:11.620Z,1.73
2019-02-12T04:50:15.438Z,1.93
2019-02-12T04:55:19.389Z,1.90
2019-02-12T05:00:23.490Z,1.67
2019-02-12T05:05:27.186Z,1.67
2019-02-12T05:10:33.625Z,1.67
2019-02-12T05:15:38.041Z,1.00
2019-02-12T05:20:42.138Z,1.07
2019-02-12T05:25:45.841Z,1.90
2019-02-12T05:30:49.628Z,1.20
2019-02-12T05:35:53.346Z,1.50
2019-02-12T05:40:57.381Z,1.20
2019-02-12T05:46:01.089Z,1.00
2019-02-12T05:51:05.222Z,1.27
2019-02-12T05:56:09.034Z,1.83
2019-02-12T06:01:12.810Z,1.13
2019-02-12T06:06:17.264Z,1.17
2019-02-12T06:11:21.163Z,1.10
2019-02-12T06:16:25.163Z,1.33
2019-02-12T06:21:28.822Z,1.30
2019-02-12T06:26:32.883Z,1.30
2019-02-12T06:31:36.576Z,1.00
2019-02-12T06:36:40.262Z,1.40
2019-02-12T06:41:44.215Z,1.30
2019-02-12T06:46:48.155Z,1.30
2019-02-12T06:51:51.837Z,1.13
2019-02-12T06:56:55.619Z,2.27
2019-02-12T07:02:35.354Z,1.20
2019-02-12T07:08:19.237Z,1.90
2019-02-12T07:13:29.063Z,3.47
2019-02-12T07:19:12.844Z,2.00
2019-02-12T07:25:03.161Z,1.50
2019-02-12T07:30:34.156Z,1.90
2019-02-12T07:36:04.653Z,1.40
2019-02-12T07:41:36.435Z,1.70
2019-02-12T07:47:17.741Z,1.67
2019-02-12T07:52:53.101Z,1.50
2019-02-12T07:58:19.053Z,1.47
2019-02-12T08:03:55.393Z,2.03
2019-02-12T08:09:48.924Z,1.40
2019-02-12T08:15:27.368Z,1.87
2019-02-12T08:20:54.749Z,1.60
2019-02-12T08:26:46.770Z,1.37
2019-02-12T08:32:26.830Z,1.70
2019-02-12T08:37:44.133Z,1.63
2019-02-12T08:42:57.064Z,1.30
2019-02-12T08:48:15.326Z,1.47
2019-02-12T08:53:50.458Z,1.70
2019-02-12T08:59:11.121Z,2.33
2019-02-12T09:04:35.622Z,2.10
2019-02-12T09:10:10.065Z,1.97
2019-02-12T09:15:30.691Z,2.23
2019-02-12T09:21:00.924Z,2.13
2019-02-12T09:26:23.378Z,2.23
2019-02-12T09:31:57.323Z,2.40
2019-02-12T09:37:27.446Z,2.70
2019-02-12T09:42:54.434Z,2.40
2019-02-12T09:48:27.546Z,2.27
2019-02-12T09:53:45.186Z,1.87
2019-02-12T09:59:10.610Z,1.80
2019-02-12T10:04:28.087Z,2.07
2019-02-12T10:10:03.256Z,2.30
2019-02-12T10:15:53.552Z,1.73
2019-02-12T10:21:11.831Z,1.90
2019-02-12T10:26:17.864Z,2.40
2019-02-12T10:31:44.513Z,2.20
2019-02-12T10:36:48.222Z,2.30
2019-02-12T10:41:52.207Z,2.27
2019-02-12T10:46:56.100Z,2.60
2019-02-12T10:51:59.798Z,2.87
2019-02-12T10:57:03.571Z,3.07
2019-02-12T11:02:07.708Z,2.77
2019-02-12T11:07:11.459Z,2.60
2019-02-12T11:12:15.237Z,2.97
2019-02-12T11:17:19.009Z,3.13
2019-02-12T11:22:22.965Z,3.47
2019-02-12T11:27:27.056Z,3.50
2019-02-12T11:32:30.771Z,3.90
2019-02-12T11:37:34.811Z,3.20
2019-02-12T11:42:38.531Z,2.30
2019-02-12T11:47:42.404Z,2.30
2019-02-12T11:52:47.383Z,1.80
2019-02-12T11:57:51.609Z,1.97
2019-02-12T12:02:55.469Z,1.47
2019-02-12T12:07:59.963Z,1.33
2019-02-12T12:13:04.093Z,1.40
2019-02-12T12:18:08.369Z,1.47
2019-02-12T12:23:12.944Z,1.50
2019-02-12T12:28:16.824Z,1.43
2019-02-12T12:33:20.721Z,1.63
2019-02-12T12:38:24.528Z,1.50
2019-02-12T12:43:29.810Z,2.10
2019-02-12T12:48:33.757Z,1.77
2019-02-12T12:53:37.586Z,2.30
2019-02-12T12:58:41.377Z,2.00
2019-02-12T13:03:45.129Z,2.20
2019-02-12T13:08:48.899Z,1.73
2019-02-12T13:13:52.591Z,1.90
2019-02-12T13:18:56.341Z,1.67
2019-02-12T13:24:00.029Z,2.07
2019-02-12T13:29:03.717Z,2.13
2019-02-12T13:34:09.753Z,2.50
2019-02-12T13:39:13.503Z,2.40
2019-02-12T13:44:17.220Z,2.27
2019-02-12T13:49:20.947Z,1.80
2019-02-12T13:54:24.982Z,2.10
2019-02-12T13:59:28.687Z,2.40
2019-02-12T14:04:32.384Z,2.03
2019-02-12T14:09:36.445Z,1.90
2019-02-12T14:14:40.131Z,2.23
2019-02-12T14:19:43.814Z,2.27
2019-02-12T14:24:47.782Z,1.90
2019-02-12T14:29:51.545Z,1.87
2019-02-12T14:34:55.331Z,2.10
2019-02-12T14:39:59.013Z,2.30
2019-02-12T14:45:02.717Z,2.00
2019-02-12T14:50:07.417Z,2.00
2019-02-12T14:55:11.416Z,2.60
2019-02-12T15:00:15.700Z,2.00
2019-02-12T15:05:19.649Z,2.60
2019-02-12T15:10:23.666Z,2.27
2019-02-12T15:15:27.346Z,2.13
2019-02-12T15:20:31.077Z,3.23
2019-02-12T15:25:41.827Z,2.43
2019-02-12T15:30:40.581Z,2.13
2019-02-12T15:35:44.613Z,3.27
2019-02-12T15:40:48.515Z,2.30
2019-02-12T15:45:53.471Z,2.63
2019-02-12T15:50:57.681Z,2.43
2019-02-12T15:56:01.385Z,2.63
2019-02-12T16:01:06.094Z,2.53
2019-02-12T16:06:09.896Z,2.07
2019-02-12T16:11:13.816Z,2.40
2019-02-12T16:16:17.507Z,2.60
2019-02-12T16:21:21.254Z,2.00
2019-02-12T16:26:25.060Z,2.33
2019-02-12T16:31:28.838Z,2.60
2019-02-12T16:36:32.806Z,2.40
2019-02-12T16:41:36.549Z,2.60
2019-02-12T16:46:40.277Z,2.33
2019-02-12T16:51:44.049Z,2.67
2019-02-12T16:56:49.061Z,2.37
2019-02-12T17:01:52.775Z,2.37
2019-02-12T17:06:56.801Z,2.60
2019-02-12T17:12:00.812Z,2.70
2019-02-12T17:17:04.529Z,2.20
2019-02-12T17:22:08.565Z,2.40
2019-02-12T17:27:12.316Z,3.10
2019-02-12T17:32:16.028Z,2.63
2019-02-12T17:37:19.726Z,2.23
2019-02-12T17:42:23.495Z,2.73
2019-02-12T17:47:27.373Z,4.13
2019-02-12T17:52:31.092Z,3.40
2019-02-12T17:57:34.803Z,3.97
2019-02-12T18:02:38.945Z,3.27
2019-02-12T18:07:42.648Z,3.37
2019-02-12T18:12:46.413Z,4.40
2019-02-12T18:17:50.236Z,4.23
2019-02-12T18:22:53.983Z,4.57
2019-02-12T18:27:57.673Z,7.57
2019-02-12T18:33:01.732Z,4.93
2019-02-12T18:38:05.747Z,4.33
2019-02-12T18:43:09.724Z,4.97
2019-02-12T18:48:13.814Z,4.40
2019-02-12T18:53:17.599Z,4.97
2019-02-12T18:58:21.656Z,3.57
2019-02-12T19:03:25.750Z,3.50
2019-02-12T19:08:41.341Z,2.57
2019-02-12T19:13:45.375Z,2.83
2019-02-12T19:18:51.505Z,2.87
2019-02-12T19:23:56.195Z,3.67
2019-02-12T19:29:01.487Z,4.30
2019-02-12T19:34:09.997Z,4.17
2019-02-12T19:39:15.065Z,4.00
2019-02-12T19:44:20.202Z,3.93
2019-02-12T19:49:26.434Z,5.20
2019-02-12T19:54:34.712Z,5.53
2019-02-12T19:59:49.607Z,5.17
2019-02-12T20:04:57.222Z,5.07
2019-02-12T20:10:08.430Z,5.60
2019-02-12T20:15:23.415Z,6.10
2019-02-12T20:20:33.177Z,5.20
2019-02-12T20:25:46.145Z,7.57
2019-02-12T20:31:05.159Z,5.70
2019-02-12T20:36:23.338Z,4.33
2019-02-12T21:08:50.236Z,3.40
2019-02-12T21:15:10.894Z,3.43
2019-02-12T21:20:51.570Z,3.10
2019-02-12T21:26:38.115Z,3.20
2019-02-12T21:32:18.188Z,11.60
2019-02-12T21:38:14.828Z,3.20
2019-02-12T21:44:01.395Z,3.20
2019-02-12T21:49:29.585Z,2.83
2019-02-12T22:01:21.803Z,4.67
2019-02-12T22:07:12.210Z,3.67
2019-02-12T22:12:17.242Z,3.40
2019-02-12T22:17:47.964Z,5.43
2019-02-12T22:23:02.748Z,2.87
2019-02-12T22:28:09.167Z,3.10
2019-02-12T22:33:17.448Z,3.80
2019-02-12T22:38:32.367Z,3.20
2019-02-12T22:43:38.973Z,3.30
2019-02-12T22:48:50.315Z,3.27
2019-02-12T22:53:55.600Z,2.70
2019-02-12T22:59:02.602Z,3.03
2019-02-12T23:04:07.447Z,3.20
2019-02-12T23:09:19.067Z,3.00
2019-02-12T23:14:23.097Z,3.40
2019-02-12T23:19:27.288Z,2.90
2019-02-12T23:24:31.714Z,3.23
2019-02-12T23:29:36.281Z,3.50
2019-02-12T23:34:40.004Z,4.10
2019-02-12T23:39:43.699Z,3.83
2019-02-12T23:44:47.368Z,3.87
2019-02-12T23:49:51.347Z,4.90
2019-02-12T23:54:56.579Z,6.30
